Time;durP1;ratioP1;P1;durP2;ratioP2;P2;SDS_P1;SDS_P2;PMS_P1;PMS_P2;Temp;Humidity;BMP_temperature;BMP_pressure;BME280_temperature;BME280_humidity;BME280_pressure;Samples;Min_cycle;Max_cycle;Signal;HPM_P1;HPM_P2
2021/04/14 00:09:18;;;;;;;19.42;9.63;;;0.60;99.90;;;;;;20841095;28;20057;-76
2021/04/14 00:19:19;;;;;;;16.83;8.60;;;0.60;99.90;;;;;;20825211;28;20120;-76
2021/04/14 00:29:20;;;;;;;16.23;8.48;;;0.60;99.90;;;;;;20823602;28;20068;-76
2021/04/14 00:39:25;;;;;;;15.25;8.13;;;0.50;99.90;;;;;;20823209;28;20099;-76
2021/04/14 00:49:27;;;;;;;16.13;8.23;;;0.40;99.90;;;;;;20839501;28;20064;-76
2021/04/14 00:59:28;;;;;;;12.95;6.70;;;0.20;99.90;;;;;;20823551;28;20041;-76
2021/04/14 01:09:29;;;;;;;9.98;5.20;;;0.20;99.90;;;;;;20841268;28;20471;-76
2021/04/14 01:19:30;;;;;;;9.43;4.50;;;0.20;99.90;;;;;;20837211;28;20053;-76
2021/04/14 01:29:31;;;;;;;8.55;4.93;;;0.20;99.90;;;;;;20836270;28;20108;-76
2021/04/14 01:39:32;;;;;;;12.00;6.03;;;0.10;99.90;;;;;;20835508;28;20042;-75
2021/04/14 01:49:32;;;;;;;10.45;5.18;;;0.00;99.90;;;;;;20834870;28;20048;-76
2021/04/14 01:59:33;;;;;;;7.28;4.85;;;0.00;99.90;;;;;;20835688;28;20065;-75
2021/04/14 02:09:34;;;;;;;12.68;6.72;;;-0.10;99.90;;;;;;20849066;28;20069;-75
2021/04/14 02:19:35;;;;;;;16.98;7.25;;;-0.30;99.90;;;;;;20832690;28;20045;-75
2021/04/14 02:29:36;;;;;;;14.15;7.13;;;-0.30;99.90;;;;;;20833438;28;20403;-75
2021/04/14 02:39:37;;;;;;;19.45;8.50;;;-0.20;99.90;;;;;;20832596;28;20507;-75
2021/04/14 02:49:37;;;;;;;15.15;7.97;;;-0.20;99.90;;;;;;20831981;28;20568;-75
2021/04/14 02:59:38;;;;;;;13.40;7.13;;;-0.30;99.90;;;;;;20831098;28;20084;-75
2021/04/14 03:09:39;;;;;;;12.35;6.85;;;-0.40;99.90;;;;;;20828858;28;20095;-75
2021/04/14 03:19:40;;;;;;;15.82;7.40;;;-0.50;99.90;;;;;;20828121;28;20041;-75
2021/04/14 03:29:41;;;;;;;13.10;7.65;;;-0.70;99.90;;;;;;20828748;28;20044;-75
2021/04/14 03:39:41;;;;;;;15.98;8.02;;;-0.80;99.90;;;;;;20827232;28;20033;-75
2021/04/14 03:49:42;;;;;;;11.43;6.28;;;-0.90;99.90;;;;;;20842936;28;20049;-75
2021/04/14 03:59:43;;;;;;;13.70;6.38;;;-0.90;99.90;;;;;;20826312;28;20495;-75
2021/04/14 04:09:44;;;;;;;15.23;8.25;;;-0.90;99.90;;;;;;20824507;28;20041;-75
2021/04/14 04:19:46;;;;;;;14.52;7.72;;;-1.40;99.90;;;;;;20988618;22;20559;-77
2021/04/14 04:29:46;;;;;;;16.98;7.75;;;-1.40;99.90;;;;;;20998046;28;20044;-77
2021/04/14 04:39:48;;;;;;;14.88;7.50;;;-1.20;99.90;;;;;;20995962;28;20043;-77
2021/04/14 04:49:48;;;;;;;12.55;6.78;;;-1.10;99.90;;;;;;20962198;28;20099;-75
2021/04/14 04:59:49;;;;;;;12.98;7.15;;;-1.00;99.90;;;;;;20923510;28;20033;-75
2021/04/14 05:09:51;;;;;;;20.13;7.93;;;-1.20;99.90;;;;;;20920497;28;20057;-78
2021/04/14 05:19:52;;;;;;;15.15;7.03;;;-0.90;99.90;;;;;;20855042;28;20041;-79
2021/04/14 05:29:52;;;;;;;13.30;6.75;;;-0.70;99.90;;;;;;20880651;28;20530;-79
2021/04/14 05:39:54;;;;;;;12.32;6.88;;;-0.50;99.90;;;;;;20923041;28;20041;-77
2021/04/14 05:49:55;;;;;;;10.57;6.53;;;0.00;99.90;;;;;;20846353;28;20045;-77
2021/04/14 05:59:56;;;;;;;14.65;7.63;;;0.20;99.90;;;;;;20837226;28;20480;-78
2021/04/14 06:09:57;;;;;;;11.23;6.40;;;0.50;99.90;;;;;;20843178;28;20045;-78
2021/04/14 06:19:58;;;;;;;11.40;6.40;;;0.80;99.90;;;;;;20844421;28;20043;-76
2021/04/14 06:29:59;;;;;;;14.20;5.93;;;1.30;99.90;;;;;;20835866;28;20048;-77
2021/04/14 06:50:28;;;;;;;10.38;5.70;;;2.20;99.90;;;;;;20853575;28;19909;-76
2021/04/14 07:00:35;;;;;;;8.90;5.37;;;3.00;99.90;;;;;;20833913;28;20076;-76
2021/04/14 07:10:36;;;;;;;8.27;5.00;;;3.40;99.90;;;;;;20830049;28;20048;-75
2021/04/14 07:21:02;;;;;;;8.32;5.10;;;3.90;99.90;;;;;;20831533;28;20108;-76
2021/04/14 07:31:20;;;;;;;8.00;4.70;;;5.00;99.90;;;;;;20830178;28;20042;-76
2021/04/14 07:41:28;;;;;;;8.52;4.75;;;5.40;99.90;;;;;;20829796;28;20052;-76
2021/04/14 07:51:29;;;;;;;7.00;3.80;;;5.70;99.90;;;;;;20831874;28;20057;-77
2021/04/14 08:01:30;;;;;;;5.30;3.30;;;6.70;99.90;;;;;;20839248;28;20037;-78
2021/04/14 08:11:33;;;;;;;7.80;3.17;;;7.30;99.90;;;;;;20858041;28;20047;-77
2021/04/14 08:22:01;;;;;;;6.20;2.92;;;7.40;99.90;;;;;;20868352;28;20042;-78
2021/04/14 08:32:12;;;;;;;6.50;2.70;;;8.30;99.90;;;;;;20858196;28;20496;-77
2021/04/14 08:42:25;;;;;;;4.18;1.63;;;9.20;99.90;;;;;;20851650;28;20042;-78
2021/04/14 08:52:27;;;;;;;3.17;1.42;;;9.10;99.90;;;;;;20847793;28;20038;-78
2021/04/14 09:02:28;;;;;;;9.63;5.80;;;10.10;99.90;;;;;;20842915;28;20053;-77
2021/04/14 09:12:51;;;;;;;6.17;3.57;;;10.30;96.70;;;;;;20842080;28;20096;-77
2021/04/14 09:23:29;;;;;;;5.68;2.67;;;10.00;92.50;;;;;;20825175;28;20276;-75
2021/04/14 09:33:45;;;;;;;3.75;1.98;;;10.30;93.00;;;;;;20819063;28;20087;-76
2021/04/14 09:43:46;;;;;;;4.97;1.58;;;10.80;90.40;;;;;;20837204;28;20045;-74
2021/04/14 09:53:48;;;;;;;5.33;1.80;;;11.10;88.30;;;;;;20836746;28;20044;-74
2021/04/14 10:03:53;;;;;;;;;;;11.50;84.50;;;;;;20836506;28;20427;-75
2021/04/14 10:13:56;;;;;;;1.75;1.10;;;11.50;84.00;;;;;;20902925;22;20424;-74
2021/04/14 10:24:08;;;;;;;1.60;1.30;;;11.50;80.70;;;;;;20998559;28;20070;-76
2021/04/14 10:34:22;;;;;;;4.80;1.80;;;11.90;77.60;;;;;;20998829;28;20040;-76
2021/04/14 10:44:28;;;;;;;4.85;1.67;;;12.20;76.20;;;;;;20996600;28;20059;-76
2021/04/14 10:54:31;;;;;;;6.90;3.50;;;12.60;78.40;;;;;;20995671;28;20043;-76
2021/04/14 11:04:40;;;;;;;4.20;1.52;;;12.30;73.80;;;;;;20996293;28;20123;-76
2021/04/14 11:14:46;;;;;;;4.35;1.60;;;12.80;76.20;;;;;;20995297;28;20406;-76
2021/04/14 11:24:52;;;;;;;1.90;1.25;;;13.00;71.50;;;;;;20994493;28;20039;-75
2021/04/14 11:34:57;;;;;;;4.22;1.65;;;13.20;69.40;;;;;;20962628;28;20037;-75
2021/04/14 11:44:59;;;;;;;2.75;1.60;;;13.30;70.50;;;;;;20942154;28;20049;-76
2021/04/14 11:55:35;;;;;;;3.75;1.45;;;13.10;74.90;;;;;;20919454;28;20045;-76
2021/04/14 12:05:35;;;;;;;2.10;1.30;;;11.40;74.10;;;;;;20907220;28;20048;-76
2021/04/14 12:15:36;;;;;;;10.50;3.95;;;12.70;72.30;;;;;;20908377;28;20041;-76
2021/04/14 12:25:39;;;;;;;3.60;1.60;;;11.80;75.70;;;;;;20908127;28;20112;-75
2021/04/14 12:35:40;;;;;;;1.73;1.48;;;9.30;79.10;;;;;;20907428;28;20495;-75
2021/04/14 12:45:42;;;;;;;2.67;1.40;;;9.50;82.30;;;;;;20905457;28;20063;-75
2021/04/14 12:55:48;;;;;;;3.00;1.27;;;9.00;84.50;;;;;;20941453;28;20055;-74
2021/04/14 13:05:56;;;;;;;4.00;1.60;;;8.90;83.00;;;;;;20991087;28;20041;-75
2021/04/14 13:16:16;;;;;;;6.95;1.65;;;9.00;82.80;;;;;;20973509;28;20047;-75
2021/04/14 13:26:30;;;;;;;6.00;1.75;;;9.20;84.40;;;;;;21004115;28;20036;-75
2021/04/14 13:36:54;;;;;;;6.60;2.05;;;9.20;83.80;;;;;;20948569;28;20037;-75
2021/04/14 13:47:25;;;;;;;2.58;1.52;;;9.50;85.80;;;;;;20954589;28;20037;-74
2021/04/14 13:57:35;;;;;;;2.78;1.80;;;9.40;86.80;;;;;;20958612;28;20048;-75
2021/04/14 14:07:44;;;;;;;3.47;2.00;;;9.20;89.80;;;;;;20951568;28;20132;-74
2021/04/14 14:17:48;;;;;;;2.47;1.88;;;9.90;80.20;;;;;;20919274;28;20048;-75
2021/04/14 14:27:49;;;;;;;2.75;1.70;;;9.40;83.60;;;;;;20916030;28;20045;-75
2021/04/14 14:37:54;;;;;;;3.93;1.90;;;9.60;82.80;;;;;;20914851;28;20075;-75
2021/04/14 14:48:04;;;;;;;3.88;2.08;;;10.10;82.40;;;;;;20952378;28;20173;-75
2021/04/14 14:58:20;;;;;;;5.07;2.10;;;10.20;82.50;;;;;;20941513;28;20413;-75
2021/04/14 15:08:21;;;;;;;3.63;1.67;;;9.30;90.10;;;;;;20952116;28;20090;-74
2021/04/14 15:18:22;;;;;;;2.57;2.07;;;8.30;90.70;;;;;;20954738;28;20052;-75
2021/04/14 15:28:23;;;;;;;3.87;2.13;;;7.70;94.30;;;;;;20938883;28;20068;-73
2021/04/14 15:38:24;;;;;;;5.60;2.20;;;7.10;99.00;;;;;;20889526;28;20611;-74
2021/04/14 15:48:25;;;;;;;4.93;2.20;;;7.20;99.00;;;;;;20926528;28;20136;-74
2021/04/14 15:58:25;;;;;;;4.00;2.37;;;7.10;99.60;;;;;;20971149;28;20041;-75
2021/04/14 16:08:29;;;;;;;4.37;2.47;;;7.20;99.90;;;;;;20904640;28;20040;-74
2021/04/14 16:18:30;;;;;;;4.68;1.80;;;7.30;99.80;;;;;;20971167;28;20051;-73
2021/04/14 16:28:31;;;;;;;3.87;2.03;;;7.50;99.90;;;;;;20968413;28;20045;-74
2021/04/14 16:38:32;;;;;;;3.43;2.20;;;7.30;98.60;;;;;;20971522;28;20044;-73
2021/04/14 16:48:34;;;;;;;3.57;1.43;;;7.20;99.00;;;;;;20946254;28;20056;-74
2021/04/14 16:58:34;;;;;;;;;;;7.20;99.90;;;;;;20903169;28;20446;-74
2021/04/14 17:08:36;;;;;;;6.93;2.15;;;7.40;99.90;;;;;;20941193;28;19912;-74
2021/04/14 17:18:38;;;;;;;2.45;1.73;;;7.10;99.90;;;;;;20983093;28;20048;-74
2021/04/14 17:28:39;;;;;;;3.70;2.17;;;6.80;99.90;;;;;;20910545;28;20079;-74
2021/04/14 17:38:40;;;;;;;3.60;2.10;;;6.80;99.90;;;;;;20915927;28;20086;-73
2021/04/14 17:48:43;;;;;;;10.23;3.77;;;6.70;99.90;;;;;;21020755;22;20052;-79
2021/04/14 17:58:44;;;;;;;8.68;3.70;;;6.60;99.90;;;;;;21002016;28;20385;-80
2021/04/14 18:08:45;;;;;;;7.37;3.70;;;6.10;99.90;;;;;;21005434;28;20396;-79
2021/04/14 18:18:46;;;;;;;3.97;3.17;;;5.50;99.90;;;;;;20984757;28;20036;-81
2021/04/14 18:28:47;;;;;;;4.87;3.23;;;5.20;99.90;;;;;;20992909;28;20071;-80
2021/04/14 18:38:47;;;;;;;6.57;3.20;;;4.90;99.90;;;;;;20989726;28;20297;-79
2021/04/14 18:48:48;;;;;;;7.37;3.43;;;4.90;99.90;;;;;;20987967;28;20064;-78
2021/04/14 18:58:49;;;;;;;8.97;4.37;;;4.70;99.90;;;;;;20983377;28;20037;-78
2021/04/14 19:08:52;;;;;;;7.30;3.87;;;4.60;99.90;;;;;;20986179;28;20032;-82
2021/04/14 19:18:53;;;;;;;8.45;4.25;;;4.50;99.90;;;;;;21002368;28;20036;-80
2021/04/14 19:28:55;;;;;;;5.63;3.83;;;4.60;99.90;;;;;;20953327;28;20043;-79
2021/04/14 19:38:56;;;;;;;7.10;4.43;;;4.70;99.90;;;;;;20916056;28;20649;-80
2021/04/14 19:48:57;;;;;;;7.97;3.85;;;4.40;99.90;;;;;;20928774;28;20052;-79
2021/04/14 19:58:58;;;;;;;7.17;3.67;;;4.40;99.90;;;;;;20973112;28;20040;-79
2021/04/14 20:08:59;;;;;;;8.37;4.10;;;4.50;99.90;;;;;;20974696;28;20036;-79
2021/04/14 20:19:00;;;;;;;9.47;4.30;;;4.20;99.90;;;;;;20973576;28;20055;-80
2021/04/14 20:29:01;;;;;;;9.73;4.50;;;4.20;99.90;;;;;;20919933;28;20053;-80
2021/04/14 20:39:07;;;;;;;8.00;4.88;;;4.00;99.90;;;;;;20941129;28;20131;-81
2021/04/14 20:49:08;;;;;;;8.02;5.20;;;3.60;99.90;;;;;;20893129;28;20067;-79
2021/04/14 20:59:09;;;;;;;7.20;4.78;;;3.40;99.90;;;;;;20887275;28;20566;-79
2021/04/14 21:09:10;;;;;;;10.20;4.77;;;3.50;99.90;;;;;;20865745;28;20859;-79
2021/04/14 21:19:11;;;;;;;7.47;4.93;;;3.60;99.90;;;;;;20879975;28;20052;-79
2021/04/14 21:29:12;;;;;;;8.38;4.85;;;3.60;99.90;;;;;;20885704;28;20044;-81
2021/04/14 21:39:14;;;;;;;7.38;5.07;;;3.60;99.90;;;;;;20901929;28;20127;-81
2021/04/14 21:49:15;;;;;;;11.52;5.40;;;3.60;99.90;;;;;;20975326;28;20044;-77
2021/04/14 21:59:16;;;;;;;8.93;5.15;;;3.40;99.90;;;;;;20971161;28;20098;-77
2021/04/14 22:09:18;;;;;;;7.18;5.00;;;3.50;99.90;;;;;;20954343;28;20098;-79
2021/04/14 22:19:20;;;;;;;9.68;5.80;;;3.60;99.90;;;;;;20970701;28;20043;-80
2021/04/14 22:29:21;;;;;;;9.75;5.72;;;3.60;99.90;;;;;;20884500;28;20052;-80
2021/04/14 22:39:22;;;;;;;;;;;3.50;99.90;;;;;;20939559;28;20073;-77
2021/04/14 22:49:23;;;;;;;8.60;5.93;;;3.50;99.90;;;;;;20974463;28;20042;-79
2021/04/14 22:59:24;;;;;;;9.93;5.70;;;3.10;99.90;;;;;;20974317;28;20142;-79
2021/04/14 23:09:25;;;;;;;12.45;5.88;;;2.70;99.90;;;;;;20903392;28;20041;-79
2021/04/14 23:19:26;;;;;;;8.65;5.53;;;2.70;99.90;;;;;;20933973;28;20037;-81
2021/04/14 23:29:26;;;;;;;9.43;5.13;;;2.10;99.90;;;;;;20923189;28;20079;-82
2021/04/14 23:39:27;;;;;;;;;;;2.10;99.90;;;;;;20905022;28;20045;-78
2021/04/14 23:49:28;;;;;;;8.70;5.70;;;2.30;99.90;;;;;;20917824;28;19940;-80
2021/04/14 23:59:29;;;;;;;8.00;5.35;;;2.60;99.90;;;;;;20917288;28;20037;-80
